Time;durP1;ratioP1;P1;durP2;ratioP2;P2;SDS_P1;SDS_P2;PMS_P1;PMS_P2;Temp;Humidity;BMP_temperature;BMP_pressure;BME280_temperature;BME280_humidity;BME280_pressure;Samples;Min_cycle;Max_cycle;Signal;HPM_P1;HPM_P2
2024/01/19 00:02:29;;;;;;;;;;;;;;;;;;2201469;59;1835;-31
2024/01/19 00:04:59;;;;;;;;;;;;;;;;;;2202842;67;1886;-31
2024/01/19 00:07:29;;;;;;;;;;;;;;;;;;2203032;59;1886;-31
2024/01/19 00:10:00;;;;;;;;;;;;;;;;;;2203376;59;1882;-31
2024/01/19 00:12:35;;;;;;;;;;;;;;;;;;2202035;67;1948;-32
2024/01/19 00:15:06;;;;;;;;;;;;;;;;;;2203488;67;2212;-31
2024/01/19 00:17:36;;;;;;;;;;;;;;;;;;2202446;59;2188;-31
2024/01/19 00:20:10;;;;;;;;;;;;;;;;;;2203322;67;1936;-31
2024/01/19 00:22:40;;;;;;;;;;;;;;;;;;2204012;67;1765;-32
2024/01/19 00:25:10;;;;;;;;;;;;;;;;;;2202537;67;1862;-31
2024/01/19 00:27:41;;;;;;;;;;;;;;;;;;2202730;67;2340;-31
2024/01/19 00:30:11;;;;;;;;;;;;;;;;;;2202721;59;1883;-31
2024/01/19 00:32:41;;;;;;;;;;;;;;;;;;2203631;63;2031;-31
2024/01/19 00:35:12;;;;;;;;;;;;;;;;;;2203121;59;1891;-31
2024/01/19 00:37:42;;;;;;;;;;;;;;;;;;2203302;59;1761;-31
2024/01/19 00:40:12;;;;;;;;;;;;;;;;;;2202774;59;1853;-30
2024/01/19 00:42:43;;;;;;;;;;;;;;;;;;2204142;67;1991;-31
2024/01/19 00:45:13;;;;;;;;;;;;;;;;;;2203224;59;2256;-31
2024/01/19 00:47:43;;;;;;;;;;;;;;;;;;2202983;59;1904;-31
2024/01/19 00:50:14;;;;;;;;;;;;;;;;;;2202882;59;2084;-31
2024/01/19 00:52:44;;;;;;;;;;;;;;;;;;2202827;59;2214;-31
2024/01/19 00:55:14;;;;;;;;;;;;;;;;;;2201450;67;2832;-31
2024/01/19 00:57:44;;;;;;;;;;;;;;;;;;2203684;67;1922;-32
2024/01/19 01:00:15;;;;;;;;;;;;;;;;;;2202159;59;1918;-31
2024/01/19 01:02:45;;;;;;;;;;;;;;;;;;2203113;59;2505;-30
2024/01/19 01:05:17;;;;;;;;;;;;;;;;;;2202684;59;1818;-31
2024/01/19 01:07:49;;;;;;;;;;;;;;;;;;2205110;59;2179;-31
2024/01/19 01:10:21;;;;;;;;;;;;;;;;;;2204212;59;2537;-31
2024/01/19 01:12:51;;;;;;;;;;;;;;;;;;2204702;59;2016;-30
2024/01/19 01:15:21;;;;;;;;;;;;;;;;;;2202451;59;2281;-30
2024/01/19 01:17:51;;;;;;;;;;;;;;;;;;2204391;67;1813;-30
2024/01/19 01:20:22;;;;;;;;;;;;;;;;;;2199870;59;1797;-30
2024/01/19 01:22:52;;;;;;;;;;;;;;;;;;2203405;67;2365;-29
2024/01/19 01:25:22;;;;;;;;;;;;;;;;;;2202907;59;2038;-30
2024/01/19 01:27:52;;;;;;;;;;;;;;;;;;2204957;59;2266;-30
2024/01/19 01:30:23;;;;;;;;;;;;;;;;;;2209371;53;2529;-27
2024/01/19 01:32:53;;;;;;;;;;;;;;;;;;2211731;58;1992;-27
2024/01/19 01:35:24;;;;;;;;;;;;;;;;;;2211579;58;2494;-27
2024/01/19 01:37:54;;;;;;;;;;;;;;;;;;2212411;66;2375;-27
2024/01/19 01:40:24;;;;;;;;;;;;;;;;;;2211443;59;1924;-27
2024/01/19 01:42:58;;;;;;;;;;;;;;;;;;2211800;58;2615;-27
2024/01/19 01:45:29;;;;;;;;;;;;;;;;;;2212649;66;1993;-27
2024/01/19 01:48:00;;;;;;;;;;;;;;;;;;2212361;58;2248;-27
2024/01/19 01:50:30;;;;;;;;;;;;;;;;;;2211216;58;2303;-26
2024/01/19 01:53:00;;;;;;;;;;;;;;;;;;2212698;59;2414;-27
2024/01/19 01:55:31;;;;;;;;;;;;;;;;;;2211196;66;2287;-26
2024/01/19 01:58:01;;;;;;;;;;;;;;;;;;2212128;58;2752;-26
2024/01/19 02:00:32;;;;;;;;;;;;;;;;;;2211123;58;2886;-26
2024/01/19 02:03:03;;;;;;;;;;;;;;;;;;2212537;58;2003;-27
2024/01/19 02:05:34;;;;;;;;;;;;;;;;;;2210329;58;2562;-26
2024/01/19 02:08:04;;;;;;;;;;;;;;;;;;2212709;58;2059;-26
2024/01/19 02:10:34;;;;;;;;;;;;;;;;;;2211528;58;1762;-26
2024/01/19 02:13:05;;;;;;;;;;;;;;;;;;2208120;58;2327;-26
2024/01/19 02:15:37;;;;;;;;;;;;;;;;;;2211513;58;2196;-27
2024/01/19 02:18:07;;;;;;;;;;;;;;;;;;2211088;58;2231;-26
2024/01/19 02:20:38;;;;;;;;;;;;;;;;;;2210572;66;1912;-27
2024/01/19 02:23:12;;;;;;;;;;;;;;;;;;2212265;58;2450;-26
2024/01/19 02:25:42;;;;;;;;;;;;;;;;;;2211337;58;1752;-29
2024/01/19 02:28:13;;;;;;;;;;;;;;;;;;2214090;58;2355;-29
2024/01/19 02:30:44;;;;;;;;;;;;;;;;;;2211570;58;1993;-30
2024/01/19 02:33:14;;;;;;;;;;;;;;;;;;2212567;58;2294;-30
2024/01/19 02:35:44;;;;;;;;;;;;;;;;;;2209046;66;2675;-29
2024/01/19 02:38:14;;;;;;;;;;;;;;;;;;2211696;58;1802;-29
2024/01/19 02:40:45;;;;;;;;;;;;;;;;;;2211098;58;2660;-29
2024/01/19 02:43:15;;;;;;;;;;;;;;;;;;2213040;66;2130;-29
2024/01/19 02:45:45;;;;;;;;;;;;;;;;;;2210774;58;2045;-29
2024/01/19 02:48:16;;;;;;;;;;;;;;;;;;2212229;59;2099;-29
2024/01/19 02:50:46;;;;;;;;;;;;;;;;;;2210998;58;2022;-29
2024/01/19 02:53:16;;;;;;;;;;;;;;;;;;2212543;59;1911;-30
2024/01/19 02:55:46;;;;;;;;;;;;;;;;;;2211272;66;2140;-29
2024/01/19 02:58:17;;;;;;;;;;;;;;;;;;2211747;66;2390;-30
2024/01/19 03:00:47;;;;;;;;;;;;;;;;;;2212520;66;2615;-29
2024/01/19 03:03:17;;;;;;;;;;;;;;;;;;2212137;59;1943;-29
2024/01/19 03:05:48;;;;;;;;;;;;;;;;;;2212190;58;2076;-29
2024/01/19 03:08:20;;;;;;;;;;;;;;;;;;2212490;58;1927;-30
2024/01/19 03:10:50;;;;;;;;;;;;;;;;;;2211128;58;1847;-30
2024/01/19 03:13:21;;;;;;;;;;;;;;;;;;2211613;66;2031;-30
2024/01/19 03:15:51;;;;;;;;;;;;;;;;;;2211780;58;2500;-29
2024/01/19 03:18:21;;;;;;;;;;;;;;;;;;2211557;58;2177;-30
2024/01/19 03:20:52;;;;;;;;;;;;;;;;;;2212607;58;2575;-29
2024/01/19 03:23:22;;;;;;;;;;;;;;;;;;2212863;59;2208;-29
2024/01/19 03:25:53;;;;;;;;;;;;;;;;;;2212792;63;1815;-29
2024/01/19 03:28:23;;;;;;;;;;;;;;;;;;2212049;58;2566;-29
2024/01/19 03:30:53;;;;;;;;;;;;;;;;;;2212488;58;2126;-29
2024/01/19 03:33:23;;;;;;;;;;;;;;;;;;2210977;58;1947;-29
2024/01/19 03:35:54;;;;;;;;;;;;;;;;;;2212606;58;1803;-30
2024/01/19 03:38:24;;;;;;;;;;;;;;;;;;2209124;66;2273;-29
2024/01/19 03:40:55;;;;;;;;;;;;;;;;;;2213703;58;2555;-28
2024/01/19 03:43:25;;;;;;;;;;;;;;;;;;2211538;58;3306;-29
2024/01/19 03:45:55;;;;;;;;;;;;;;;;;;2212506;58;1844;-29
2024/01/19 03:48:25;;;;;;;;;;;;;;;;;;2211967;58;2204;-28
2024/01/19 03:50:56;;;;;;;;;;;;;;;;;;2212878;58;1656;-30
2024/01/19 03:53:26;;;;;;;;;;;;;;;;;;2211095;58;2416;-30
2024/01/19 03:55:56;;;;;;;;;;;;;;;;;;2211405;58;2515;-29
2024/01/19 03:58:27;;;;;;;;;;;;;;;;;;2209793;66;2783;-30
2024/01/19 04:00:57;;;;;;;;;;;;;;;;;;2212054;66;1739;-30
2024/01/19 04:03:27;;;;;;;;;;;;;;;;;;2211306;58;1943;-28
2024/01/19 04:05:57;;;;;;;;;;;;;;;;;;2212717;58;1760;-29
2024/01/19 04:08:28;;;;;;;;;;;;;;;;;;2211128;58;1903;-28
2024/01/19 04:10:58;;;;;;;;;;;;;;;;;;2212485;58;1787;-29
2024/01/19 04:13:28;;;;;;;;;;;;;;;;;;2211547;58;2504;-30
2024/01/19 04:15:59;;;;;;;;;;;;;;;;;;2212923;58;2303;-29
2024/01/19 04:18:29;;;;;;;;;;;;;;;;;;2210450;58;2297;-29
2024/01/19 04:20:59;;;;;;;;;;;;;;;;;;2211852;58;2131;-28
2024/01/19 04:23:30;;;;;;;;;;;;;;;;;;2211255;58;1972;-28
2024/01/19 04:26:00;;;;;;;;;;;;;;;;;;2210116;58;1857;-30
2024/01/19 04:28:30;;;;;;;;;;;;;;;;;;2209604;58;2608;-28
2024/01/19 04:31:01;;;;;;;;;;;;;;;;;;2212832;58;2599;-28
2024/01/19 04:33:31;;;;;;;;;;;;;;;;;;2210248;66;2433;-28
2024/01/19 04:36:01;;;;;;;;;;;;;;;;;;2210868;58;1901;-29
2024/01/19 04:38:31;;;;;;;;;;;;;;;;;;2205070;59;2155;-28
2024/01/19 04:41:02;;;;;;;;;;;;;;;;;;2212506;58;1632;-29
2024/01/19 04:43:33;;;;;;;;;;;;;;;;;;2211876;58;1756;-27
2024/01/19 04:46:03;;;;;;;;;;;;;;;;;;2213168;58;1680;-29
2024/01/19 04:48:33;;;;;;;;;;;;;;;;;;2212774;58;3248;-28
2024/01/19 04:51:05;;;;;;;;;;;;;;;;;;2213030;58;2571;-28
2024/01/19 04:53:35;;;;;;;;;;;;;;;;;;2212428;58;1939;-29
2024/01/19 04:56:06;;;;;;;;;;;;;;;;;;2213288;66;2267;-28
2024/01/19 04:58:36;;;;;;;;;;;;;;;;;;2211238;66;2549;-29
2024/01/19 05:01:07;;;;;;;;;;;;;;;;;;2213348;66;3002;-28
2024/01/19 05:03:37;;;;;;;;;;;;;;;;;;2211840;66;2375;-28
2024/01/19 05:06:07;;;;;;;;;;;;;;;;;;2214103;58;1802;-29
2024/01/19 05:08:38;;;;;;;;;;;;;;;;;;2211780;58;1732;-28
2024/01/19 05:11:13;;;;;;;;;;;;;;;;;;2212334;58;1984;-29
2024/01/19 05:13:43;;;;;;;;;;;;;;;;;;2212787;63;2773;-28
2024/01/19 05:16:14;;;;;;;;;;;;;;;;;;2212942;58;2307;-28
2024/01/19 05:18:44;;;;;;;;;;;;;;;;;;2211661;59;2600;-28
2024/01/19 05:21:14;;;;;;;;;;;;;;;;;;2212204;66;1912;-28
2024/01/19 05:23:45;;;;;;;;;;;;;;;;;;2210808;59;1973;-28
2024/01/19 05:26:15;;;;;;;;;;;;;;;;;;2212420;59;1738;-27
2024/01/19 05:28:45;;;;;;;;;;;;;;;;;;2211943;59;2121;-27
2024/01/19 05:31:15;;;;;;;;;;;;;;;;;;2211878;58;2682;-28
2024/01/19 05:33:46;;;;;;;;;;;;;;;;;;2212695;58;3212;-28
2024/01/19 05:36:16;;;;;;;;;;;;;;;;;;2212836;58;1770;-28
2024/01/19 05:38:46;;;;;;;;;;;;;;;;;;2212893;58;2390;-28
2024/01/19 05:41:21;;;;;;;;;;;;;;;;;;2211969;58;2962;-28
2024/01/19 05:43:51;;;;;;;;;;;;;;;;;;2210852;58;2650;-28
2024/01/19 05:46:21;;;;;;;;;;;;;;;;;;2212131;66;2005;-28
2024/01/19 05:48:52;;;;;;;;;;;;;;;;;;2210943;58;2388;-28
2024/01/19 05:51:22;;;;;;;;;;;;;;;;;;2211422;58;2697;-28
2024/01/19 05:53:52;;;;;;;;;;;;;;;;;;2210414;59;1935;-27
2024/01/19 05:56:22;;;;;;;;;;;;;;;;;;2212153;58;2127;-28
2024/01/19 05:58:53;;;;;;;;;;;;;;;;;;2211677;58;1857;-27
2024/01/19 06:01:23;;;;;;;;;;;;;;;;;;2212924;66;1755;-28
2024/01/19 06:03:53;;;;;;;;;;;;;;;;;;2212342;58;2189;-28
2024/01/19 06:06:23;;;;;;;;;;;;;;;;;;2214695;59;1499;-28
2024/01/19 06:08:54;;;;;;;;;;;;;;;;;;2211347;59;1950;-27
2024/01/19 06:11:24;;;;;;;;;;;;;;;;;;2214474;58;1774;-28
2024/01/19 06:13:54;;;;;;;;;;;;;;;;;;2211923;66;2527;-27
2024/01/19 06:16:24;;;;;;;;;;;;;;;;;;2213467;58;2240;-28
2024/01/19 06:18:55;;;;;;;;;;;;;;;;;;2214368;59;2159;-27
2024/01/19 06:21:25;;;;;;;;;;;;;;;;;;2214274;59;1862;-27
2024/01/19 06:23:55;;;;;;;;;;;;;;;;;;2213553;58;2142;-27
2024/01/19 06:26:32;;;;;;;;;;;;;;;;;;2215137;66;1735;-28
2024/01/19 06:29:02;;;;;;;;;;;;;;;;;;2212209;58;1980;-27
2024/01/19 06:31:32;;;;;;;;;;;;;;;;;;2212383;58;2301;-27
2024/01/19 06:34:02;;;;;;;;;;;;;;;;;;2210738;58;1981;-27
2024/01/19 06:36:33;;;;;;;;;;;;;;;;;;2212726;66;2482;-28
2024/01/19 06:39:04;;;;;;;;;;;;;;;;;;2210852;59;2320;-27
2024/01/19 06:41:34;;;;;;;;;;;;;;;;;;2212518;59;2393;-27
2024/01/19 06:44:05;;;;;;;;;;;;;;;;;;2212802;58;2163;-27
2024/01/19 06:46:35;;;;;;;;;;;;;;;;;;2211940;58;2362;-28
2024/01/19 06:49:06;;;;;;;;;;;;;;;;;;2212695;58;3804;-27
2024/01/19 06:51:36;;;;;;;;;;;;;;;;;;2212295;58;2189;-28
2024/01/19 06:54:06;;;;;;;;;;;;;;;;;;2213321;59;2325;-27
2024/01/19 06:56:37;;;;;;;;;;;;;;;;;;2212218;58;2343;-28
2024/01/19 06:59:07;;;;;;;;;;;;;;;;;;2209874;58;2407;-28
2024/01/19 07:01:38;;;;;;;;;;;;;;;;;;2212148;58;2401;-28
2024/01/19 07:04:09;;;;;;;;;;;;;;;;;;2212127;58;2198;-28
2024/01/19 07:06:39;;;;;;;;;;;;;;;;;;2211930;58;1757;-25
2024/01/19 07:09:10;;;;;;;;;;;;;;;;;;2212839;58;2394;-25
2024/01/19 07:11:40;;;;;;;;;;;;;;;;;;2213100;58;2683;-25
2024/01/19 07:14:11;;;;;;;;;;;;;;;;;;2210661;59;2673;-25
2024/01/19 07:16:43;;;;;;;;;;;;;;;;;;2212178;58;2394;-25
2024/01/19 07:19:13;;;;;;;;;;;;;;;;;;2213279;58;3093;-25
2024/01/19 07:21:43;;;;;;;;;;;;;;;;;;2211034;66;2685;-25
2024/01/19 07:24:14;;;;;;;;;;;;;;;;;;2213247;66;2659;-25
2024/01/19 07:26:44;;;;;;;;;;;;;;;;;;2211566;58;2079;-25
2024/01/19 07:29:15;;;;;;;;;;;;;;;;;;2211132;58;1961;-25
2024/01/19 07:31:45;;;;;;;;;;;;;;;;;;2210986;58;2758;-25
2024/01/19 07:34:15;;;;;;;;;;;;;;;;;;2211108;58;1995;-25
2024/01/19 07:36:46;;;;;;;;;;;;;;;;;;2208414;59;2238;-25
2024/01/19 07:39:18;;;;;;;;;;;;;;;;;;2211436;66;1926;-26
2024/01/19 07:41:52;;;;;;;;;;;;;;;;;;2209628;59;1866;-25
2024/01/19 07:44:22;;;;;;;;;;;;;;;;;;2212467;66;2706;-25
2024/01/19 07:46:52;;;;;;;;;;;;;;;;;;2210344;66;2359;-25
2024/01/19 07:49:22;;;;;;;;;;;;;;;;;;2210868;58;2540;-25
2024/01/19 07:51:53;;;;;;;;;;;;;;;;;;2209490;66;2372;-25
2024/01/19 07:54:23;;;;;;;;;;;;;;;;;;2211186;66;1940;-25
2024/01/19 07:56:55;;;;;;;;;;;;;;;;;;2216175;53;2324;-22
2024/01/19 07:59:25;;;;;;;;;;;;;;;;;;2213248;58;1994;-22
2024/01/19 08:01:56;;;;;;;;;;;;;;;;;;2215013;66;2333;-22
2024/01/19 08:04:26;;;;;;;;;;;;;;;;;;2214650;66;1746;-22
2024/01/19 08:06:56;;;;;;;;;;;;;;;;;;2213994;58;1873;-22
2024/01/19 08:09:27;;;;;;;;;;;;;;;;;;2213938;59;1988;-22
2024/01/19 08:11:57;;;;;;;;;;;;;;;;;;2211570;59;2559;-22
2024/01/19 08:14:28;;;;;;;;;;;;;;;;;;2214331;58;1941;-22
2024/01/19 08:16:58;;;;;;;;;;;;;;;;;;2212687;58;2459;-22
2024/01/19 08:19:28;;;;;;;;;;;;;;;;;;2213940;63;1607;-22
2024/01/19 08:21:58;;;;;;;;;;;;;;;;;;2213877;66;1813;-22
2024/01/19 08:24:29;;;;;;;;;;;;;;;;;;2213859;66;1791;-22
2024/01/19 08:26:59;;;;;;;;;;;;;;;;;;2209964;58;2406;-22
2024/01/19 08:29:32;;;;;;;;;;;;;;;;;;2212291;58;1740;-22
2024/01/19 08:32:02;;;;;;;;;;;;;;;;;;2210504;58;1993;-22
2024/01/19 08:34:33;;;;;;;;;;;;;;;;;;2211617;58;2126;-22
2024/01/19 08:37:03;;;;;;;;;;;;;;;;;;2210103;58;2523;-22
2024/01/19 08:39:34;;;;;;;;;;;;;;;;;;2213563;58;3160;-22
2024/01/19 08:42:06;;;;;;;;;;;;;;;;;;2211578;66;1916;-22
2024/01/19 08:44:36;;;;;;;;;;;;;;;;;;2213813;66;1844;-22
2024/01/19 08:47:07;;;;;;;;;;;;;;;;;;2211774;66;1728;-22
2024/01/19 08:49:38;;;;;;;;;;;;;;;;;;2216619;58;1687;-21
2024/01/19 08:52:08;;;;;;;;;;;;;;;;;;2212725;58;2395;-22
2024/01/19 08:54:38;;;;;;;;;;;;;;;;;;2213405;58;1991;-22
2024/01/19 08:57:08;;;;;;;;;;;;;;;;;;2213988;59;1849;-21
2024/01/19 08:59:39;;;;;;;;;;;;;;;;;;2214216;66;2148;-21
2024/01/19 09:02:11;;;;;;;;;;;;;;;;;;2211857;58;1859;-21
2024/01/19 09:04:43;;;;;;;;;;;;;;;;;;2210022;59;2423;-21
2024/01/19 09:07:15;;;;;;;;;;;;;;;;;;2205616;58;2547;-28
2024/01/19 09:09:46;;;;;;;;;;;;;;;;;;2206388;58;1912;-21
2024/01/19 09:12:17;;;;;;;;;;;;;;;;;;2207068;58;2911;-21
2024/01/19 09:14:49;;;;;;;;;;;;;;;;;;2200404;58;2147;-22
2024/01/19 09:17:20;;;;;;;;;;;;;;;;;;2210165;58;2076;-22
2024/01/19 09:19:52;;;;;;;;;;;;;;;;;;2205311;58;2629;-22
2024/01/19 09:22:24;;;;;;;;;;;;;;;;;;2205562;58;4038;-21
2024/01/19 09:24:55;;;;;;;;;;;;;;;;;;2202154;58;2430;-21
2024/01/19 09:27:29;;;;;;;;;;;;;;;;;;2211590;58;4405;-22
2024/01/19 09:30:03;;;;;;;;;;;;;;;;;;2201821;58;2619;-21
2024/01/19 09:32:35;;;;;;;;;;;;;;;;;;2210651;58;1932;-26
2024/01/19 09:35:07;;;;;;;;;;;;;;;;;;2204264;58;1671;-23
2024/01/19 09:37:40;;;;;;;;;;;;;;;;;;2207424;58;2249;-23
2024/01/19 09:40:13;;;;;;;;;;;;;;;;;;2208990;58;1936;-21
2024/01/19 09:42:45;;;;;;;;;;;;;;;;;;2209782;59;1675;-21
2024/01/19 09:45:19;;;;;;;;;;;;;;;;;;2207552;59;2149;-22
2024/01/19 09:48:02;;;;;;;;;;;;;;;;;;2212723;58;1818;-22
2024/01/19 09:50:37;;;;;;;;;;;;;;;;;;2206377;58;2187;-21
2024/01/19 09:53:32;;;;;;;;;;;;;;;;;;2206322;59;2034;-22
2024/01/19 09:56:02;;;;;;;;;;;;;;;;;;2209237;58;1994;-22
2024/01/19 09:58:33;;;;;;;;;;;;;;;;;;2211404;58;2205;-22
2024/01/19 10:01:03;;;;;;;;;;;;;;;;;;2207104;58;2040;-22
2024/01/19 10:03:36;;;;;;;;;;;;;;;;;;2212182;58;2677;-22
2024/01/19 10:06:06;;;;;;;;;;;;;;;;;;2213232;58;2093;-22
2024/01/19 10:08:38;;;;;;;;;;;;;;;;;;2212171;58;2198;-22
2024/01/19 10:11:09;;;;;;;;;;;;;;;;;;2205201;58;2511;-22
2024/01/19 10:13:40;;;;;;;;;;;;;;;;;;2210791;58;1945;-23
2024/01/19 10:16:11;;;;;;;;;;;;;;;;;;2212216;59;2275;-21
2024/01/19 10:18:42;;;;;;;;;;;;;;;;;;2212990;66;2133;-23
2024/01/19 10:21:14;;;;;;;;;;;;;;;;;;2208507;58;2415;-23
2024/01/19 10:23:47;;;;;;;;;;;;;;;;;;2211652;58;1888;-23
2024/01/19 10:26:19;;;;;;;;;;;;;;;;;;2210700;58;1919;-23
2024/01/19 10:28:50;;;;;;;;;;;;;;;;;;2213958;58;2251;-23
2024/01/19 10:31:22;;;;;;;;;;;;;;;;;;2214151;58;2219;-23
2024/01/19 10:33:53;;;;;;;;;;;;;;;;;;2213859;59;2251;-22
2024/01/19 10:36:24;;;;;;;;;;;;;;;;;;2214076;66;2284;-23
2024/01/19 10:39:14;;;;;;;;;;;;;;;;;;2214622;58;2451;-24
2024/01/19 10:41:45;;;;;;;;;;;;;;;;;;2214176;58;2239;-24
2024/01/19 10:44:16;;;;;;;;;;;;;;;;;;2213093;58;2200;-23
2024/01/19 10:46:49;;;;;;;;;;;;;;;;;;2214535;58;2896;-24
2024/01/19 10:49:21;;;;;;;;;;;;;;;;;;2211171;58;2290;-24
2024/01/19 10:51:52;;;;;;;;;;;;;;;;;;2213217;58;2464;-24
2024/01/19 10:54:27;;;;;;;;;;;;;;;;;;2212139;59;2616;-24
2024/01/19 10:57:05;;;;;;;;;;;;;;;;;;2213580;58;2449;-24
2024/01/19 10:59:36;;;;;;;;;;;;;;;;;;2213580;58;2319;-24
2024/01/19 11:02:06;;;;;;;;;;;;;;;;;;2212014;58;2358;-24
2024/01/19 11:04:39;;;;;;;;;;;;;;;;;;2213534;58;2253;-24
2024/01/19 11:07:11;;;;;;;;;;;;;;;;;;2212988;58;2290;-24
2024/01/19 11:09:42;;;;;;;;;;;;;;;;;;2211044;59;2170;-25
2024/01/19 11:12:16;;;;;;;;;;;;;;;;;;2214572;58;2332;-24
2024/01/19 11:14:47;;;;;;;;;;;;;;;;;;2211635;59;2427;-24
2024/01/19 11:17:17;;;;;;;;;;;;;;;;;;2213476;58;2487;-24
2024/01/19 11:19:48;;;;;;;;;;;;;;;;;;2215472;58;2225;-24
2024/01/19 11:22:18;;;;;;;;;;;;;;;;;;2213883;58;2402;-24
2024/01/19 11:24:49;;;;;;;;;;;;;;;;;;2214911;59;2474;-25
2024/01/19 11:27:34;;;;;;;;;;;;;;;;;;2215298;58;2521;-25
2024/01/19 11:30:14;;;;;;;;;;;;;;;;;;2214874;58;2606;-27
2024/01/19 11:32:44;;;;;;;;;;;;;;;;;;2215694;58;2189;-25
2024/01/19 11:35:35;;;;;;;;;;;;;;;;;;2214577;58;2298;-25
2024/01/19 11:38:05;;;;;;;;;;;;;;;;;;2213887;58;2436;-32
2024/01/19 11:40:35;;;;;;;;;;;;;;;;;;2214767;58;2843;-25
2024/01/19 11:43:06;;;;;;;;;;;;;;;;;;2212280;58;2231;-26
2024/01/19 11:45:38;;;;;;;;;;;;;;;;;;2211375;59;2753;-25
2024/01/19 11:48:11;;;;;;;;;;;;;;;;;;2213184;58;2447;-25
2024/01/19 11:50:43;;;;;;;;;;;;;;;;;;2210865;59;3026;-25
2024/01/19 11:53:14;;;;;;;;;;;;;;;;;;2209076;59;2863;-25
2024/01/19 11:55:48;;;;;;;;;;;;;;;;;;2213833;58;2365;-24
2024/01/19 11:58:28;;;;;;;;;;;;;;;;;;2213036;58;2428;-24
2024/01/19 12:01:00;;;;;;;;;;;;;;;;;;2212959;58;2175;-23
2024/01/19 12:03:30;;;;;;;;;;;;;;;;;;2215536;58;2377;-24
2024/01/19 12:06:01;;;;;;;;;;;;;;;;;;2211400;59;3377;-23
2024/01/19 12:08:32;;;;;;;;;;;;;;;;;;2212742;58;2237;-24
2024/01/19 12:11:07;;;;;;;;;;;;;;;;;;2214025;58;2117;-25
2024/01/19 12:13:40;;;;;;;;;;;;;;;;;;2216464;66;3031;-25
2024/01/19 12:16:11;;;;;;;;;;;;;;;;;;2213886;59;2359;-25
2024/01/19 12:18:41;;;;;;;;;;;;;;;;;;2216032;58;2467;-24
2024/01/19 12:21:11;;;;;;;;;;;;;;;;;;2214065;58;2372;-24
2024/01/19 12:23:42;;;;;;;;;;;;;;;;;;2218866;58;3582;-24
2024/01/19 12:26:18;;;;;;;;;;;;;;;;;;2214768;58;1419;-24
2024/01/19 12:28:52;;;;;;;;;;;;;;;;;;2215115;58;2094;-25
2024/01/19 12:31:36;;;;;;;;;;;;;;;;;;2212967;58;1278;-25
2024/01/19 12:34:10;;;;;;;;;;;;;;;;;;2213169;66;2041;-25
2024/01/19 12:36:41;;;;;;;;;;;;;;;;;;2213819;66;2326;-25
2024/01/19 12:39:13;;;;;;;;;;;;;;;;;;2213658;66;1632;-25
2024/01/19 12:41:56;;;;;;;;;;;;;;;;;;2214098;59;1543;-25
2024/01/19 12:44:27;;;;;;;;;;;;;;;;;;2213878;66;1323;-25
2024/01/19 12:46:58;;;;;;;;;;;;;;;;;;2214926;58;2223;-25
2024/01/19 12:49:28;;;;;;;;;;;;;;;;;;2213270;58;1675;-25
2024/01/19 12:51:58;;;;;;;;;;;;;;;;;;2214741;66;1529;-25
2024/01/19 12:54:42;;;;;;;;;;;;;;;;;;2213312;66;1906;-25
2024/01/19 12:57:18;;;;;;;;;;;;;;;;;;2212894;59;2437;-25
2024/01/19 13:00:24;;;;;;;;;;;;;;;;;;2213762;66;1670;-24
2024/01/19 13:02:57;;;;;;;;;;;;;;;;;;2204368;59;1866;-26
2024/01/19 13:05:29;;;;;;;;;;;;;;;;;;2212874;66;1345;-25
2024/01/19 13:08:01;;;;;;;;;;;;;;;;;;2215060;58;1871;-24
2024/01/19 13:10:31;;;;;;;;;;;;;;;;;;2214064;58;1325;-22
2024/01/19 13:13:05;;;;;;;;;;;;;;;;;;2215685;66;1924;-22
2024/01/19 13:15:36;;;;;;;;;;;;;;;;;;2215340;59;2426;-21
2024/01/19 13:18:15;;;;;;;;;;;;;;;;;;2214908;66;1519;-21
2024/01/19 13:20:45;;;;;;;;;;;;;;;;;;2214048;66;1777;-21
2024/01/19 13:23:17;;;;;;;;;;;;;;;;;;2214217;58;2150;-21
2024/01/19 13:25:53;;;;;;;;;;;;;;;;;;2216006;66;1303;-22
2024/01/19 13:28:23;;;;;;;;;;;;;;;;;;2214526;59;2232;-22
2024/01/19 13:30:54;;;;;;;;;;;;;;;;;;2214046;66;1365;-19
2024/01/19 13:33:24;;;;;;;;;;;;;;;;;;2214378;66;1921;-19
2024/01/19 13:35:55;;;;;;;;;;;;;;;;;;2214806;59;2208;-19
2024/01/19 13:38:25;;;;;;;;;;;;;;;;;;2213318;66;1497;-19
2024/01/19 13:40:56;;;;;;;;;;;;;;;;;;2214959;66;2223;-19
2024/01/19 13:43:27;;;;;;;;;;;;;;;;;;2214531;66;1617;-19
2024/01/19 13:45:57;;;;;;;;;;;;;;;;;;2214050;58;2678;-19
2024/01/19 13:48:28;;;;;;;;;;;;;;;;;;2213534;58;2173;-19
2024/01/19 13:50:58;;;;;;;;;;;;;;;;;;2208728;59;1831;-19
2024/01/19 13:53:29;;;;;;;;;;;;;;;;;;2211692;66;1929;-19
2024/01/19 13:56:00;;;;;;;;;;;;;;;;;;2214505;66;1923;-19
2024/01/19 13:58:30;;;;;;;;;;;;;;;;;;2214776;58;2253;-19
2024/01/19 14:01:00;;;;;;;;;;;;;;;;;;2213440;66;1491;-19
2024/01/19 14:03:31;;;;;;;;;;;;;;;;;;2212988;59;1521;-19
2024/01/19 14:06:02;;;;;;;;;;;;;;;;;;2215592;58;2370;-19
2024/01/19 14:08:33;;;;;;;;;;;;;;;;;;2214313;58;1768;-19
2024/01/19 14:11:06;;;;;;;;;;;;;;;;;;2213573;59;1615;-19
2024/01/19 14:13:37;;;;;;;;;;;;;;;;;;2215438;66;1987;-19
2024/01/19 14:16:07;;;;;;;;;;;;;;;;;;2214710;59;2305;-19
2024/01/19 14:18:37;;;;;;;;;;;;;;;;;;2213391;66;1466;-19
2024/01/19 14:21:08;;;;;;;;;;;;;;;;;;2211520;58;2017;-19
2024/01/19 14:23:38;;;;;;;;;;;;;;;;;;2211674;58;1597;-20
2024/01/19 14:26:08;;;;;;;;;;;;;;;;;;2214952;66;1277;-19
2024/01/19 14:28:40;;;;;;;;;;;;;;;;;;2214587;58;4076;-19
2024/01/19 14:31:11;;;;;;;;;;;;;;;;;;2214147;58;1604;-19
2024/01/19 14:33:44;;;;;;;;;;;;;;;;;;2215135;58;1938;-19
2024/01/19 14:36:15;;;;;;;;;;;;;;;;;;2211494;59;1704;-19
2024/01/19 14:38:45;;;;;;;;;;;;;;;;;;2212845;58;2072;-19
2024/01/19 14:41:16;;;;;;;;;;;;;;;;;;2211530;58;2210;-19
2024/01/19 14:43:46;;;;;;;;;;;;;;;;;;2206198;58;2625;-19
2024/01/19 14:46:16;;;;;;;;;;;;;;;;;;2209130;58;2510;-19
2024/01/19 14:48:47;;;;;;;;;;;;;;;;;;2212847;59;2195;-19
2024/01/19 14:51:17;;;;;;;;;;;;;;;;;;2212572;58;2636;-19
2024/01/19 14:53:48;;;;;;;;;;;;;;;;;;2213394;58;1933;-19
2024/01/19 14:56:18;;;;;;;;;;;;;;;;;;2212509;58;2627;-19
2024/01/19 14:58:49;;;;;;;;;;;;;;;;;;2213604;58;2194;-19
2024/01/19 15:01:20;;;;;;;;;;;;;;;;;;2210823;58;1914;-18
2024/01/19 15:03:51;;;;;;;;;;;;;;;;;;2210929;58;1776;-19
2024/01/19 15:06:21;;;;;;;;;;;;;;;;;;2210775;58;2210;-19
2024/01/19 15:08:51;;;;;;;;;;;;;;;;;;2213764;58;2077;-19
2024/01/19 15:11:22;;;;;;;;;;;;;;;;;;2213109;58;4148;-18
2024/01/19 15:13:52;;;;;;;;;;;;;;;;;;2211540;58;2092;-19
2024/01/19 15:16:22;;;;;;;;;;;;;;;;;;2210229;59;2151;-18
2024/01/19 15:18:53;;;;;;;;;;;;;;;;;;2213982;58;2549;-18
2024/01/19 15:21:23;;;;;;;;;;;;;;;;;;2212424;58;2652;-19
2024/01/19 15:23:53;;;;;;;;;;;;;;;;;;2212305;59;3998;-18
2024/01/19 15:26:23;;;;;;;;;;;;;;;;;;2212507;66;2078;-18
2024/01/19 15:28:54;;;;;;;;;;;;;;;;;;2212767;58;1864;-18
2024/01/19 15:31:27;;;;;;;;;;;;;;;;;;2209763;66;2249;-18
2024/01/19 15:33:57;;;;;;;;;;;;;;;;;;2210696;66;1921;-18
2024/01/19 15:36:28;;;;;;;;;;;;;;;;;;2213546;59;2176;-18
2024/01/19 15:38:59;;;;;;;;;;;;;;;;;;2212690;66;2028;-18
2024/01/19 15:41:30;;;;;;;;;;;;;;;;;;2213341;59;1948;-18
2024/01/19 15:44:00;;;;;;;;;;;;;;;;;;2213827;58;2500;-18
2024/01/19 15:46:30;;;;;;;;;;;;;;;;;;2214169;58;1786;-18
2024/01/19 15:49:01;;;;;;;;;;;;;;;;;;2214284;58;2533;-18
2024/01/19 15:51:32;;;;;;;;;;;;;;;;;;2214604;58;2134;-18
2024/01/19 15:54:03;;;;;;;;;;;;;;;;;;2214069;58;1987;-18
2024/01/19 15:56:33;;;;;;;;;;;;;;;;;;2214242;58;2151;-18
2024/01/19 15:59:05;;;;;;;;;;;;;;;;;;2214148;58;2696;-18
2024/01/19 16:01:38;;;;;;;;;;;;;;;;;;2211283;58;2234;-17
2024/01/19 16:04:09;;;;;;;;;;;;;;;;;;2214170;58;2178;-18
2024/01/19 16:06:39;;;;;;;;;;;;;;;;;;2213940;58;2406;-18
2024/01/19 16:09:10;;;;;;;;;;;;;;;;;;2214920;58;2622;-20
2024/01/19 16:11:40;;;;;;;;;;;;;;;;;;2214184;58;1873;-19
2024/01/19 16:14:10;;;;;;;;;;;;;;;;;;2215825;58;1992;-19
2024/01/19 16:16:44;;;;;;;;;;;;;;;;;;2213623;58;2768;-19
2024/01/19 16:19:15;;;;;;;;;;;;;;;;;;2214925;58;1922;-19
2024/01/19 16:21:51;;;;;;;;;;;;;;;;;;2213816;58;2364;-20
2024/01/19 16:24:21;;;;;;;;;;;;;;;;;;2213341;58;2002;-19
2024/01/19 16:26:55;;;;;;;;;;;;;;;;;;2213412;59;2214;-19
2024/01/19 16:29:26;;;;;;;;;;;;;;;;;;2213663;58;2676;-19
2024/01/19 16:31:56;;;;;;;;;;;;;;;;;;2213512;58;2151;-19
2024/01/19 16:34:26;;;;;;;;;;;;;;;;;;2212760;58;2089;-19
2024/01/19 16:36:57;;;;;;;;;;;;;;;;;;2213001;58;2135;-19
2024/01/19 16:39:28;;;;;;;;;;;;;;;;;;2210528;58;2597;-19
2024/01/19 16:41:59;;;;;;;;;;;;;;;;;;2212718;58;2815;-20
2024/01/19 16:44:29;;;;;;;;;;;;;;;;;;2212180;58;2735;-19
2024/01/19 16:46:59;;;;;;;;;;;;;;;;;;2213297;58;3289;-19
2024/01/19 16:49:30;;;;;;;;;;;;;;;;;;2210441;58;2900;-19
2024/01/19 16:52:00;;;;;;;;;;;;;;;;;;2215397;58;2936;-19
2024/01/19 16:54:32;;;;;;;;;;;;;;;;;;2213206;53;2867;-22
2024/01/19 16:57:05;;;;;;;;;;;;;;;;;;2201206;59;2733;-21
2024/01/19 16:59:35;;;;;;;;;;;;;;;;;;2203808;59;2118;-21
2024/01/19 17:02:08;;;;;;;;;;;;;;;;;;2207095;59;2637;-22
2024/01/19 17:04:40;;;;;;;;;;;;;;;;;;2197162;59;2333;-21
2024/01/19 17:07:11;;;;;;;;;;;;;;;;;;2202037;59;2628;-21
2024/01/19 17:09:41;;;;;;;;;;;;;;;;;;2198219;59;2533;-22
2024/01/19 17:12:11;;;;;;;;;;;;;;;;;;2202748;59;2600;-22
2024/01/19 17:14:42;;;;;;;;;;;;;;;;;;2199355;59;1928;-22
2024/01/19 17:17:12;;;;;;;;;;;;;;;;;;2204003;59;2061;-22
2024/01/19 17:19:42;;;;;;;;;;;;;;;;;;2197895;59;2305;-21
2024/01/19 17:22:13;;;;;;;;;;;;;;;;;;2199939;67;1878;-21
2024/01/19 17:24:43;;;;;;;;;;;;;;;;;;2200778;59;1779;-21
2024/01/19 17:27:13;;;;;;;;;;;;;;;;;;2203637;59;2048;-21
2024/01/19 17:29:43;;;;;;;;;;;;;;;;;;2202164;59;1816;-21
2024/01/19 17:32:14;;;;;;;;;;;;;;;;;;2202778;63;2051;-21